sensor_id;sensor_type;location;lat;lon;timestamp;pressure;altitude;pressure_sealevel;temperature;humidity
19286;BME280;9776;50.798;6.430;2023-04-06T00:01:48;100423.00;;;5.60;46.91
19286;BME280;9776;50.798;6.430;2023-04-06T00:04:15;100425.75;;;5.59;46.84
19286;BME280;9776;50.798;6.430;2023-04-06T00:06:42;100417.13;;;5.46;46.98
19286;BME280;9776;50.798;6.430;2023-04-06T00:09:09;100417.06;;;5.24;47.49
19286;BME280;9776;50.798;6.430;2023-04-06T00:11:36;100417.69;;;5.27;47.37
19286;BME280;9776;50.798;6.430;2023-04-06T00:14:02;100413.41;;;5.37;47.13
19286;BME280;9776;50.798;6.430;2023-04-06T00:16:29;100416.31;;;5.45;46.74
19286;BME280;9776;50.798;6.430;2023-04-06T00:18:57;100413.13;;;5.53;46.64
19286;BME280;9776;50.798;6.430;2023-04-06T00:21:24;100411.22;;;5.55;46.55
19286;BME280;9776;50.798;6.430;2023-04-06T00:23:52;100415.16;;;5.60;46.50
19286;BME280;9776;50.798;6.430;2023-04-06T00:26:18;100405.41;;;5.62;46.38
19286;BME280;9776;50.798;6.430;2023-04-06T00:28:45;100407.19;;;5.62;46.29
19286;BME280;9776;50.798;6.430;2023-04-06T00:31:12;100398.88;;;5.57;46.48
19286;BME280;9776;50.798;6.430;2023-04-06T00:33:39;100399.56;;;5.59;46.41
19286;BME280;9776;50.798;6.430;2023-04-06T00:36:07;100400.97;;;5.52;46.65
19286;BME280;9776;50.798;6.430;2023-04-06T00:38:34;100395.13;;;5.48;46.73
19286;BME280;9776;50.798;6.430;2023-04-06T00:41:02;100393.53;;;5.24;47.38
19286;BME280;9776;50.798;6.430;2023-04-06T00:43:29;100394.28;;;5.02;47.59
19286;BME280;9776;50.798;6.430;2023-04-06T00:45:56;100383.88;;;4.89;48.12
19286;BME280;9776;50.798;6.430;2023-04-06T00:48:23;100382.53;;;4.84;48.43
19286;BME280;9776;50.798;6.430;2023-04-06T00:50:50;100383.75;;;4.91;48.26
19286;BME280;9776;50.798;6.430;2023-04-06T00:53:18;100382.38;;;4.98;48.05
19286;BME280;9776;50.798;6.430;2023-04-06T00:55:45;100380.38;;;5.01;47.85
19286;BME280;9776;50.798;6.430;2023-04-06T00:58:12;100377.19;;;5.09;47.84
19286;BME280;9776;50.798;6.430;2023-04-06T01:00:39;100371.84;;;5.10;47.77
19286;BME280;9776;50.798;6.430;2023-04-06T01:03:06;100371.22;;;5.07;47.98
19286;BME280;9776;50.798;6.430;2023-04-06T01:05:33;100369.69;;;5.04;48.04
19286;BME280;9776;50.798;6.430;2023-04-06T01:08:00;100361.72;;;5.06;48.02
19286;BME280;9776;50.798;6.430;2023-04-06T01:10:28;100359.81;;;5.08;47.96
19286;BME280;9776;50.798;6.430;2023-04-06T01:12:55;100360.06;;;5.05;48.00
19286;BME280;9776;50.798;6.430;2023-04-06T01:15:23;100359.22;;;5.04;48.09
19286;BME280;9776;50.798;6.430;2023-04-06T01:17:50;100355.63;;;5.05;47.98
19286;BME280;9776;50.798;6.430;2023-04-06T01:20:18;100359.09;;;5.06;47.85
19286;BME280;9776;50.798;6.430;2023-04-06T01:22:46;100357.66;;;5.02;47.92
19286;BME280;9776;50.798;6.430;2023-04-06T01:25:13;100347.31;;;5.00;47.92
19286;BME280;9776;50.798;6.430;2023-04-06T01:27:39;100351.81;;;4.98;47.93
19286;BME280;9776;50.798;6.430;2023-04-06T01:30:07;100344.19;;;4.95;48.08
19286;BME280;9776;50.798;6.430;2023-04-06T01:32:34;100340.25;;;4.90;48.15
19286;BME280;9776;50.798;6.430;2023-04-06T01:35:00;100334.53;;;4.85;48.14
19286;BME280;9776;50.798;6.430;2023-04-06T01:37:27;100333.56;;;4.86;48.59
19286;BME280;9776;50.798;6.430;2023-04-06T01:39:57;100328.56;;;4.83;48.33
19286;BME280;9776;50.798;6.430;2023-04-06T01:42:23;100335.69;;;4.81;48.23
19286;BME280;9776;50.798;6.430;2023-04-06T01:44:51;100337.25;;;4.83;48.30
19286;BME280;9776;50.798;6.430;2023-04-06T01:47:18;100325.84;;;4.84;48.26
19286;BME280;9776;50.798;6.430;2023-04-06T01:49:45;100327.63;;;4.84;48.31
19286;BME280;9776;50.798;6.430;2023-04-06T01:52:12;100328.09;;;4.78;48.54
19286;BME280;9776;50.798;6.430;2023-04-06T01:54:39;100320.22;;;4.78;48.63
19286;BME280;9776;50.798;6.430;2023-04-06T01:57:07;100318.78;;;4.74;48.64
19286;BME280;9776;50.798;6.430;2023-04-06T01:59:34;100319.22;;;4.68;48.68
19286;BME280;9776;50.798;6.430;2023-04-06T02:02:00;100311.84;;;4.62;48.87
19286;BME280;9776;50.798;6.430;2023-04-06T02:04:27;100321.56;;;4.59;48.88
19286;BME280;9776;50.798;6.430;2023-04-06T02:06:54;100312.88;;;4.59;49.04
19286;BME280;9776;50.798;6.430;2023-04-06T02:09:21;100306.94;;;4.57;48.99
19286;BME280;9776;50.798;6.430;2023-04-06T02:11:48;100307.00;;;4.44;49.31
19286;BME280;9776;50.798;6.430;2023-04-06T02:14:16;100305.38;;;4.31;49.57
19286;BME280;9776;50.798;6.430;2023-04-06T02:16:43;100301.94;;;4.30;49.80
19286;BME280;9776;50.798;6.430;2023-04-06T02:19:10;100304.09;;;4.36;49.55
19286;BME280;9776;50.798;6.430;2023-04-06T02:21:37;100306.72;;;4.36;49.58
19286;BME280;9776;50.798;6.430;2023-04-06T02:24:04;100306.84;;;4.35;49.68
19286;BME280;9776;50.798;6.430;2023-04-06T02:26:31;100307.34;;;4.40;49.67
19286;BME280;9776;50.798;6.430;2023-04-06T02:28:57;100298.66;;;4.39;49.57
19286;BME280;9776;50.798;6.430;2023-04-06T02:31:25;100300.44;;;4.39;49.76
19286;BME280;9776;50.798;6.430;2023-04-06T02:33:52;100302.47;;;4.35;49.75
19286;BME280;9776;50.798;6.430;2023-04-06T02:36:19;100298.94;;;4.24;50.12
19286;BME280;9776;50.798;6.430;2023-04-06T02:38:46;100295.38;;;4.25;50.00
19286;BME280;9776;50.798;6.430;2023-04-06T02:41:12;100296.22;;;4.25;49.96
19286;BME280;9776;50.798;6.430;2023-04-06T02:43:39;100312.09;;;4.22;50.09
19286;BME280;9776;50.798;6.430;2023-04-06T02:46:06;100299.56;;;3.78;50.99
19286;BME280;9776;50.798;6.430;2023-04-06T02:48:34;100303.00;;;3.79;51.10
19286;BME280;9776;50.798;6.430;2023-04-06T02:51:02;100305.31;;;3.83;51.01
19286;BME280;9776;50.798;6.430;2023-04-06T02:53:31;100295.88;;;3.93;50.76
19286;BME280;9776;50.798;6.430;2023-04-06T02:56:04;100295.69;;;3.96;50.77
19286;BME280;9776;50.798;6.430;2023-04-06T03:08:48;100287.13;;;3.94;50.85
19286;BME280;9776;50.798;6.430;2023-04-06T03:11:15;100287.75;;;3.98;50.82
19286;BME280;9776;50.798;6.430;2023-04-06T03:13:42;100285.84;;;4.00;50.74
19286;BME280;9776;50.798;6.430;2023-04-06T03:16:09;100289.09;;;4.04;50.75
19286;BME280;9776;50.798;6.430;2023-04-06T03:18:35;100292.50;;;4.04;50.64
19286;BME280;9776;50.798;6.430;2023-04-06T03:21:02;100290.88;;;4.03;50.80
19286;BME280;9776;50.798;6.430;2023-04-06T03:23:31;100279.59;;;3.90;51.06
19286;BME280;9776;50.798;6.430;2023-04-06T03:28:41;100285.50;;;3.56;51.77
19286;BME280;9776;50.798;6.430;2023-04-06T03:31:11;100287.50;;;3.52;51.84
19286;BME280;9776;50.798;6.430;2023-04-06T03:33:40;100287.41;;;3.54;51.80
19286;BME280;9776;50.798;6.430;2023-04-06T03:36:10;100285.84;;;3.51;51.72
19286;BME280;9776;50.798;6.430;2023-04-06T03:38:41;100285.13;;;3.49;51.93
19286;BME280;9776;50.798;6.430;2023-04-06T03:41:14;100288.66;;;3.48;51.86
19286;BME280;9776;50.798;6.430;2023-04-06T03:43:46;100277.69;;;3.56;51.77
19286;BME280;9776;50.798;6.430;2023-04-06T03:46:13;100289.47;;;3.61;51.60
19286;BME280;9776;50.798;6.430;2023-04-06T03:48:39;100282.38;;;3.63;51.65
19286;BME280;9776;50.798;6.430;2023-04-06T03:51:06;100280.50;;;3.65;51.54
19286;BME280;9776;50.798;6.430;2023-04-06T03:53:35;100280.38;;;3.67;51.54
19286;BME280;9776;50.798;6.430;2023-04-06T03:56:03;100279.66;;;3.65;51.64
19286;BME280;9776;50.798;6.430;2023-04-06T03:58:30;100281.63;;;3.61;51.83
19286;BME280;9776;50.798;6.430;2023-04-06T04:00:58;100276.31;;;3.63;51.72
19286;BME280;9776;50.798;6.430;2023-04-06T04:03:25;100278.81;;;3.64;51.64
19286;BME280;9776;50.798;6.430;2023-04-06T04:05:52;100275.16;;;3.67;51.56
19286;BME280;9776;50.798;6.430;2023-04-06T04:08:20;100283.41;;;3.73;51.53
19286;BME280;9776;50.798;6.430;2023-04-06T04:10:47;100280.47;;;3.78;51.55
19286;BME280;9776;50.798;6.430;2023-04-06T04:13:14;100273.78;;;3.74;51.62
19286;BME280;9776;50.798;6.430;2023-04-06T04:15:40;100281.84;;;3.71;51.79
19286;BME280;9776;50.798;6.430;2023-04-06T04:18:09;100278.59;;;3.67;51.80
19286;BME280;9776;50.798;6.430;2023-04-06T04:20:35;100279.34;;;3.69;51.91
19286;BME280;9776;50.798;6.430;2023-04-06T04:23:02;100279.84;;;3.74;51.94
19286;BME280;9776;50.798;6.430;2023-04-06T04:25:29;100285.50;;;3.81;51.77
19286;BME280;9776;50.798;6.430;2023-04-06T04:27:56;100277.19;;;3.87;51.57
19286;BME280;9776;50.798;6.430;2023-04-06T04:30:23;100280.22;;;3.93;51.41
19286;BME280;9776;50.798;6.430;2023-04-06T04:32:50;100285.00;;;3.99;51.37
19286;BME280;9776;50.798;6.430;2023-04-06T04:35:18;100273.72;;;3.99;51.41
19286;BME280;9776;50.798;6.430;2023-04-06T04:37:45;100278.94;;;3.99;51.53
19286;BME280;9776;50.798;6.430;2023-04-06T04:40:11;100282.06;;;4.04;51.59
19286;BME280;9776;50.798;6.430;2023-04-06T04:42:39;100277.25;;;4.11;51.53
19286;BME280;9776;50.798;6.430;2023-04-06T04:45:12;100283.53;;;4.08;51.53
19286;BME280;9776;50.798;6.430;2023-04-06T04:47:39;100278.31;;;4.08;51.65
19286;BME280;9776;50.798;6.430;2023-04-06T04:50:06;100279.97;;;4.09;51.56
19286;BME280;9776;50.798;6.430;2023-04-06T04:52:34;100283.66;;;4.07;51.81
19286;BME280;9776;50.798;6.430;2023-04-06T04:55:01;100278.66;;;4.04;51.95
19286;BME280;9776;50.798;6.430;2023-04-06T04:57:29;100279.78;;;3.99;52.01
19286;BME280;9776;50.798;6.430;2023-04-06T04:59:58;100287.34;;;3.91;52.20
19286;BME280;9776;50.798;6.430;2023-04-06T05:02:25;100281.50;;;3.88;52.46
19286;BME280;9776;50.798;6.430;2023-04-06T05:04:51;100285.22;;;3.96;52.29
19286;BME280;9776;50.798;6.430;2023-04-06T05:07:18;100285.63;;;4.03;52.14
19286;BME280;9776;50.798;6.430;2023-04-06T05:09:47;100289.47;;;4.10;52.01
19286;BME280;9776;50.798;6.430;2023-04-06T05:12:14;100285.47;;;4.17;52.06
19286;BME280;9776;50.798;6.430;2023-04-06T05:14:41;100286.81;;;4.23;51.99
19286;BME280;9776;50.798;6.430;2023-04-06T05:17:08;100285.25;;;4.20;52.05
19286;BME280;9776;50.798;6.430;2023-04-06T05:19:35;100289.44;;;4.23;51.97
19286;BME280;9776;50.798;6.430;2023-04-06T05:22:01;100281.38;;;4.26;52.13
19286;BME280;9776;50.798;6.430;2023-04-06T05:24:30;100274.88;;;4.31;52.11
19286;BME280;9776;50.798;6.430;2023-04-06T05:27:07;100279.44;;;4.40;51.95
19286;BME280;9776;50.798;6.430;2023-04-06T05:29:45;100285.44;;;4.53;51.93
19286;BME280;9776;50.798;6.430;2023-04-06T05:32:20;100278.22;;;4.68;51.57
19286;BME280;9776;50.798;6.430;2023-04-06T05:34:57;100279.25;;;4.78;51.40
19286;BME280;9776;50.798;6.430;2023-04-06T05:37:28;100280.34;;;4.87;51.41
19286;BME280;9776;50.798;6.430;2023-04-06T05:39:55;100270.00;;;4.96;51.21
19286;BME280;9776;50.798;6.430;2023-04-06T05:42:23;100271.13;;;5.05;51.34
19286;BME280;9776;50.798;6.430;2023-04-06T05:44:50;100272.22;;;5.13;51.16
19286;BME280;9776;50.798;6.430;2023-04-06T05:47:17;100270.78;;;5.21;51.10
19286;BME280;9776;50.798;6.430;2023-04-06T05:49:44;100271.00;;;5.29;51.07
19286;BME280;9776;50.798;6.430;2023-04-06T05:52:11;100275.91;;;5.33;51.27
19286;BME280;9776;50.798;6.430;2023-04-06T05:54:38;100276.25;;;5.40;51.18
19286;BME280;9776;50.798;6.430;2023-04-06T05:57:04;100272.84;;;5.50;51.15
19286;BME280;9776;50.798;6.430;2023-04-06T05:59:33;100273.06;;;5.58;51.05
19286;BME280;9776;50.798;6.430;2023-04-06T06:01:59;100267.34;;;5.64;51.02
19286;BME280;9776;50.798;6.430;2023-04-06T06:04:27;100277.59;;;5.79;50.94
19286;BME280;9776;50.798;6.430;2023-04-06T06:06:53;100270.22;;;5.72;51.09
19286;BME280;9776;50.798;6.430;2023-04-06T06:09:20;100267.50;;;5.85;51.02
19286;BME280;9776;50.798;6.430;2023-04-06T06:11:48;100272.47;;;5.99;50.78
19286;BME280;9776;50.798;6.430;2023-04-06T06:14:14;100266.63;;;6.07;50.57
19286;BME280;9776;50.798;6.430;2023-04-06T06:16:43;100271.38;;;6.13;50.59
19286;BME280;9776;50.798;6.430;2023-04-06T06:19:10;100272.31;;;6.12;50.84
19286;BME280;9776;50.798;6.430;2023-04-06T06:21:39;100267.56;;;6.17;50.75
19286;BME280;9776;50.798;6.430;2023-04-06T06:24:07;100268.47;;;6.27;50.75
19286;BME280;9776;50.798;6.430;2023-04-06T06:26:34;100259.25;;;6.44;50.58
19286;BME280;9776;50.798;6.430;2023-04-06T06:29:02;100266.69;;;6.59;50.15
19286;BME280;9776;50.798;6.430;2023-04-06T06:31:30;100255.25;;;6.60;50.36
19286;BME280;9776;50.798;6.430;2023-04-06T06:33:58;100252.38;;;6.84;50.02
19286;BME280;9776;50.798;6.430;2023-04-06T06:36:25;100251.19;;;7.09;49.77
19286;BME280;9776;50.798;6.430;2023-04-06T06:38:52;100257.81;;;7.33;49.30
19286;BME280;9776;50.798;6.430;2023-04-06T06:41:18;100260.69;;;7.61;49.08
19286;BME280;9776;50.798;6.430;2023-04-06T06:43:46;100259.69;;;7.92;48.82
19286;BME280;9776;50.798;6.430;2023-04-06T06:46:12;100258.03;;;8.50;47.97
19286;BME280;9776;50.798;6.430;2023-04-06T06:48:39;100254.34;;;9.28;46.94
19286;BME280;9776;50.798;6.430;2023-04-06T06:51:07;100254.03;;;9.77;46.21
19286;BME280;9776;50.798;6.430;2023-04-06T06:53:35;100254.25;;;10.11;45.57
19286;BME280;9776;50.798;6.430;2023-04-06T06:56:02;100252.31;;;10.13;45.72
19286;BME280;9776;50.798;6.430;2023-04-06T06:58:28;100253.41;;;10.10;45.74
19286;BME280;9776;50.798;6.430;2023-04-06T07:00:56;100256.41;;;10.25;45.53
19286;BME280;9776;50.798;6.430;2023-04-06T07:03:23;100247.53;;;10.44;44.86
19286;BME280;9776;50.798;6.430;2023-04-06T07:05:50;100245.03;;;10.60;44.39
19286;BME280;9776;50.798;6.430;2023-04-06T07:08:21;100247.31;;;10.72;44.15
19286;BME280;9776;50.798;6.430;2023-04-06T07:10:48;100237.56;;;10.91;43.71
19286;BME280;9776;50.798;6.430;2023-04-06T07:13:15;100241.19;;;11.15;43.22
19286;BME280;9776;50.798;6.430;2023-04-06T07:15:46;100237.97;;;11.29;42.93
19286;BME280;9776;50.798;6.430;2023-04-06T07:18:12;100240.78;;;11.54;42.47
19286;BME280;9776;50.798;6.430;2023-04-06T07:20:39;100236.63;;;11.85;41.75
19286;BME280;9776;50.798;6.430;2023-04-06T07:23:06;100242.97;;;12.00;41.42
19286;BME280;9776;50.798;6.430;2023-04-06T07:25:34;100232.75;;;12.13;40.97
19286;BME280;9776;50.798;6.430;2023-04-06T07:28:02;100232.09;;;12.19;40.80
19286;BME280;9776;50.798;6.430;2023-04-06T07:30:28;100239.06;;;12.20;40.75
19286;BME280;9776;50.798;6.430;2023-04-06T07:32:55;100244.69;;;12.25;40.63
19286;BME280;9776;50.798;6.430;2023-04-06T07:35:24;100241.53;;;12.22;40.58
19286;BME280;9776;50.798;6.430;2023-04-06T07:37:51;100243.19;;;12.23;40.58
19286;BME280;9776;50.798;6.430;2023-04-06T07:40:18;100241.06;;;12.26;40.49
19286;BME280;9776;50.798;6.430;2023-04-06T07:42:46;100244.88;;;12.40;40.18
19286;BME280;9776;50.798;6.430;2023-04-06T07:45:13;100244.44;;;12.61;39.94
19286;BME280;9776;50.798;6.430;2023-04-06T07:47:40;100228.19;;;12.80;39.58
19286;BME280;9776;50.798;6.430;2023-04-06T07:50:08;100226.53;;;13.03;39.09
19286;BME280;9776;50.798;6.430;2023-04-06T07:52:35;100230.50;;;13.23;38.95
19286;BME280;9776;50.798;6.430;2023-04-06T07:55:02;100232.44;;;13.45;38.34
19286;BME280;9776;50.798;6.430;2023-04-06T07:57:29;100228.75;;;13.54;38.04
19286;BME280;9776;50.798;6.430;2023-04-06T07:59:57;100227.69;;;13.72;37.81
19286;BME280;9776;50.798;6.430;2023-04-06T08:02:24;100222.78;;;13.91;37.58
19286;BME280;9776;50.798;6.430;2023-04-06T08:04:51;100221.28;;;13.97;37.19
19286;BME280;9776;50.798;6.430;2023-04-06T08:07:17;100226.59;;;13.97;37.20
19286;BME280;9776;50.798;6.430;2023-04-06T08:09:44;100227.94;;;13.93;37.24
19286;BME280;9776;50.798;6.430;2023-04-06T08:12:11;100223.88;;;13.82;37.21
19286;BME280;9776;50.798;6.430;2023-04-06T08:14:38;100222.69;;;13.77;37.47
19286;BME280;9776;50.798;6.430;2023-04-06T08:17:06;100214.88;;;13.83;37.25
19286;BME280;9776;50.798;6.430;2023-04-06T08:19:33;100225.00;;;13.80;37.41
19286;BME280;9776;50.798;6.430;2023-04-06T08:21:59;100217.03;;;13.88;37.18
19286;BME280;9776;50.798;6.430;2023-04-06T08:24:26;100220.94;;;14.00;37.04
19286;BME280;9776;50.798;6.430;2023-04-06T08:26:53;100222.38;;;14.10;36.87
19286;BME280;9776;50.798;6.430;2023-04-06T08:29:19;100229.47;;;14.18;36.84
19286;BME280;9776;50.798;6.430;2023-04-06T08:31:46;100219.31;;;14.21;36.77
19286;BME280;9776;50.798;6.430;2023-04-06T08:34:14;100215.47;;;14.32;36.45
19286;BME280;9776;50.798;6.430;2023-04-06T08:36:41;100221.88;;;14.46;36.30
19286;BME280;9776;50.798;6.430;2023-04-06T08:39:08;100222.25;;;14.57;36.14
19286;BME280;9776;50.798;6.430;2023-04-06T08:41:34;100216.91;;;14.65;36.09
19286;BME280;9776;50.798;6.430;2023-04-06T08:44:02;100224.63;;;14.52;35.96
19286;BME280;9776;50.798;6.430;2023-04-06T08:46:30;100225.63;;;14.51;36.10
19286;BME280;9776;50.798;6.430;2023-04-06T08:48:58;100214.28;;;14.57;35.80
19286;BME280;9776;50.798;6.430;2023-04-06T08:51:28;100217.34;;;14.69;35.63
19286;BME280;9776;50.798;6.430;2023-04-06T08:53:56;100215.00;;;14.74;35.71
19286;BME280;9776;50.798;6.430;2023-04-06T08:56:24;100212.75;;;14.86;35.39
19286;BME280;9776;50.798;6.430;2023-04-06T08:58:52;100217.91;;;15.02;35.20
19286;BME280;9776;50.798;6.430;2023-04-06T09:01:21;100218.56;;;15.18;34.95
19286;BME280;9776;50.798;6.430;2023-04-06T09:03:50;100217.84;;;15.39;34.53
19286;BME280;9776;50.798;6.430;2023-04-06T09:06:18;100220.38;;;15.55;34.25
19286;BME280;9776;50.798;6.430;2023-04-06T09:08:47;100217.59;;;15.63;34.05
19286;BME280;9776;50.798;6.430;2023-04-06T09:11:14;100218.81;;;15.61;34.33
19286;BME280;9776;50.798;6.430;2023-04-06T09:13:46;100223.31;;;15.60;34.24
19286;BME280;9776;50.798;6.430;2023-04-06T09:16:13;100220.25;;;15.78;34.14
19286;BME280;9776;50.798;6.430;2023-04-06T09:18:41;100221.94;;;16.15;33.52
19286;BME280;9776;50.798;6.430;2023-04-06T09:21:08;100231.88;;;16.42;33.42
19286;BME280;9776;50.798;6.430;2023-04-06T09:23:36;100228.53;;;16.55;33.05
19286;BME280;9776;50.798;6.430;2023-04-06T09:26:09;100230.38;;;16.39;33.46
19286;BME280;9776;50.798;6.430;2023-04-06T09:28:43;100231.59;;;16.37;33.24
19286;BME280;9776;50.798;6.430;2023-04-06T09:31:10;100231.34;;;16.53;33.21
19286;BME280;9776;50.798;6.430;2023-04-06T09:33:38;100227.84;;;16.67;32.85
19286;BME280;9776;50.798;6.430;2023-04-06T09:36:06;100224.56;;;16.93;32.24
19286;BME280;9776;50.798;6.430;2023-04-06T09:38:36;100216.81;;;16.98;31.90
19286;BME280;9776;50.798;6.430;2023-04-06T09:41:03;100217.50;;;16.85;31.58
19286;BME280;9776;50.798;6.430;2023-04-06T09:43:31;100220.97;;;16.58;31.92
19286;BME280;9776;50.798;6.430;2023-04-06T09:46:00;100221.44;;;16.62;31.85
19286;BME280;9776;50.798;6.430;2023-04-06T09:48:31;100216.19;;;16.75;31.72
19286;BME280;9776;50.798;6.430;2023-04-06T09:51:03;100214.06;;;16.91;31.12
19286;BME280;9776;50.798;6.430;2023-04-06T09:53:31;100223.22;;;17.03;31.15
19286;BME280;9776;50.798;6.430;2023-04-06T09:56:02;100216.94;;;17.11;31.13
19286;BME280;9776;50.798;6.430;2023-04-06T09:58:34;100210.09;;;17.09;31.23
19286;BME280;9776;50.798;6.430;2023-04-06T10:01:06;100219.38;;;17.13;31.14
19286;BME280;9776;50.798;6.430;2023-04-06T10:03:45;100215.16;;;17.25;30.94
19286;BME280;9776;50.798;6.430;2023-04-06T10:06:16;100222.03;;;17.40;30.90
19286;BME280;9776;50.798;6.430;2023-04-06T10:08:47;100228.53;;;17.59;30.72
19286;BME280;9776;50.798;6.430;2023-04-06T10:11:16;100227.75;;;17.37;30.95
19286;BME280;9776;50.798;6.430;2023-04-06T10:13:45;100223.00;;;17.33;31.29
19286;BME280;9776;50.798;6.430;2023-04-06T10:16:14;100224.69;;;17.40;30.94
19286;BME280;9776;50.798;6.430;2023-04-06T10:18:43;100234.78;;;17.45;31.06
19286;BME280;9776;50.798;6.430;2023-04-06T10:21:14;100227.44;;;17.53;30.70
19286;BME280;9776;50.798;6.430;2023-04-06T10:23:45;100229.16;;;17.54;30.77
19286;BME280;9776;50.798;6.430;2023-04-06T10:26:15;100228.72;;;17.92;30.13
19286;BME280;9776;50.798;6.430;2023-04-06T10:28:45;100239.00;;;18.62;29.65
19286;BME280;9776;50.798;6.430;2023-04-06T10:31:12;100228.72;;;19.24;28.66
19286;BME280;9776;50.798;6.430;2023-04-06T10:33:39;100232.41;;;19.43;28.27
19286;BME280;9776;50.798;6.430;2023-04-06T10:36:10;100232.63;;;19.22;28.57
19286;BME280;9776;50.798;6.430;2023-04-06T10:38:38;100234.50;;;18.95;29.19
19286;BME280;9776;50.798;6.430;2023-04-06T10:41:06;100239.63;;;18.77;29.49
19286;BME280;9776;50.798;6.430;2023-04-06T10:43:34;100228.03;;;18.37;30.04
19286;BME280;9776;50.798;6.430;2023-04-06T10:46:04;100236.66;;;17.79;30.99
19286;BME280;9776;50.798;6.430;2023-04-06T10:48:38;100234.00;;;17.51;31.65
19286;BME280;9776;50.798;6.430;2023-04-06T10:51:10;100241.66;;;17.54;31.34
19286;BME280;9776;50.798;6.430;2023-04-06T10:53:37;100235.59;;;17.73;31.32
19286;BME280;9776;50.798;6.430;2023-04-06T10:56:09;100226.41;;;18.43;30.41
19286;BME280;9776;50.798;6.430;2023-04-06T10:58:37;100232.66;;;18.96;29.96
19286;BME280;9776;50.798;6.430;2023-04-06T11:01:05;100219.88;;;19.11;29.80
19286;BME280;9776;50.798;6.430;2023-04-06T11:03:42;100217.22;;;18.58;30.18
19286;BME280;9776;50.798;6.430;2023-04-06T11:06:09;100219.78;;;18.39;30.58
19286;BME280;9776;50.798;6.430;2023-04-06T11:08:36;100213.00;;;18.36;30.51
19286;BME280;9776;50.798;6.430;2023-04-06T11:11:06;100227.19;;;18.24;31.04
19286;BME280;9776;50.798;6.430;2023-04-06T11:13:38;100224.53;;;17.76;31.42
19286;BME280;9776;50.798;6.430;2023-04-06T11:16:12;100220.56;;;17.38;32.14
19286;BME280;9776;50.798;6.430;2023-04-06T11:18:49;100227.28;;;17.27;32.12
19286;BME280;9776;50.798;6.430;2023-04-06T11:21:19;100222.97;;;17.26;32.25
19286;BME280;9776;50.798;6.430;2023-04-06T11:23:46;100228.13;;;17.28;32.11
19286;BME280;9776;50.798;6.430;2023-04-06T11:26:13;100223.00;;;17.33;32.36
19286;BME280;9776;50.798;6.430;2023-04-06T11:28:41;100226.00;;;17.17;32.61
19286;BME280;9776;50.798;6.430;2023-04-06T11:31:10;100224.94;;;17.11;32.72
19286;BME280;9776;50.798;6.430;2023-04-06T11:33:38;100225.34;;;17.15;32.81
19286;BME280;9776;50.798;6.430;2023-04-06T11:36:06;100223.72;;;17.14;32.67
19286;BME280;9776;50.798;6.430;2023-04-06T11:38:33;100213.69;;;16.94;32.83
19286;BME280;9776;50.798;6.430;2023-04-06T11:41:01;100214.81;;;17.07;33.04
19286;BME280;9776;50.798;6.430;2023-04-06T11:43:29;100224.75;;;17.47;32.49
19286;BME280;9776;50.798;6.430;2023-04-06T11:46:00;100214.28;;;17.45;32.01
19286;BME280;9776;50.798;6.430;2023-04-06T11:48:30;100212.50;;;17.25;31.88
19286;BME280;9776;50.798;6.430;2023-04-06T11:50:58;100215.66;;;16.79;31.91
19286;BME280;9776;50.798;6.430;2023-04-06T11:53:26;100206.44;;;16.25;32.65
19286;BME280;9776;50.798;6.430;2023-04-06T11:55:53;100202.66;;;15.62;33.80
19286;BME280;9776;50.798;6.430;2023-04-06T11:58:20;100209.13;;;15.16;34.37
19286;BME280;9776;50.798;6.430;2023-04-06T12:00:46;100219.34;;;14.90;35.16
19286;BME280;9776;50.798;6.430;2023-04-06T12:03:13;100220.41;;;14.81;35.61
19286;BME280;9776;50.798;6.430;2023-04-06T12:05:43;100223.41;;;14.63;36.25
19286;BME280;9776;50.798;6.430;2023-04-06T12:08:10;100226.41;;;14.29;37.16
19286;BME280;9776;50.798;6.430;2023-04-06T12:10:37;100227.84;;;14.09;37.67
19286;BME280;9776;50.798;6.430;2023-04-06T12:13:03;100240.44;;;14.15;37.86
19286;BME280;9776;50.798;6.430;2023-04-06T12:15:30;100226.66;;;14.19;37.72
19286;BME280;9776;50.798;6.430;2023-04-06T12:17:57;100226.75;;;14.34;37.44
19286;BME280;9776;50.798;6.430;2023-04-06T12:20:24;100229.56;;;14.55;37.16
19286;BME280;9776;50.798;6.430;2023-04-06T12:22:52;100219.47;;;14.73;36.62
19286;BME280;9776;50.798;6.430;2023-04-06T12:25:19;100228.16;;;14.45;36.89
19286;BME280;9776;50.798;6.430;2023-04-06T12:27:45;100223.56;;;14.08;37.35
19286;BME280;9776;50.798;6.430;2023-04-06T12:30:13;100229.22;;;13.66;38.03
19286;BME280;9776;50.798;6.430;2023-04-06T12:32:39;100224.44;;;13.61;38.31
19286;BME280;9776;50.798;6.430;2023-04-06T12:35:07;100231.84;;;13.74;38.32
19286;BME280;9776;50.798;6.430;2023-04-06T12:37:34;100229.22;;;13.66;38.99
19286;BME280;9776;50.798;6.430;2023-04-06T12:40:04;100231.72;;;13.68;39.57
19286;BME280;9776;50.798;6.430;2023-04-06T12:42:31;100231.75;;;13.51;40.31
19286;BME280;9776;50.798;6.430;2023-04-06T12:44:58;100239.72;;;13.43;41.25
19286;BME280;9776;50.798;6.430;2023-04-06T12:47:25;100230.13;;;13.34;41.87
19286;BME280;9776;50.798;6.430;2023-04-06T12:49:53;100229.81;;;13.37;41.99
19286;BME280;9776;50.798;6.430;2023-04-06T12:52:20;100229.84;;;13.29;42.59
19286;BME280;9776;50.798;6.430;2023-04-06T12:54:47;100226.84;;;13.16;43.06
19286;BME280;9776;50.798;6.430;2023-04-06T12:57:15;100223.03;;;13.27;43.28
19286;BME280;9776;50.798;6.430;2023-04-06T12:59:43;100219.72;;;13.33;43.36
19286;BME280;9776;50.798;6.430;2023-04-06T13:02:09;100221.03;;;13.37;43.51
19286;BME280;9776;50.798;6.430;2023-04-06T13:04:36;100216.22;;;13.40;43.51
19286;BME280;9776;50.798;6.430;2023-04-06T13:07:03;100214.06;;;13.28;43.90
19286;BME280;9776;50.798;6.430;2023-04-06T13:09:30;100211.44;;;13.28;43.91
19286;BME280;9776;50.798;6.430;2023-04-06T13:11:57;100216.75;;;13.20;44.09
19286;BME280;9776;50.798;6.430;2023-04-06T13:14:25;100220.53;;;13.25;44.48
19286;BME280;9776;50.798;6.430;2023-04-06T13:16:52;100210.59;;;13.35;44.34
19286;BME280;9776;50.798;6.430;2023-04-06T13:19:18;100207.25;;;13.49;43.95
19286;BME280;9776;50.798;6.430;2023-04-06T13:21:45;100212.22;;;13.44;44.13